createdAt,value
2022-11-29T00:00:35.362Z,0.92
2022-11-29T00:03:26.121Z,0.61
2022-11-29T00:10:23.519Z,0.49
2022-11-29T00:24:02.233Z,1.15
2022-11-29T00:26:37.524Z,1.15
2022-11-29T00:29:04.723Z,1.01
2022-11-29T00:31:59.313Z,1.05
2022-11-29T00:54:32.187Z,1.21
2022-11-29T00:57:20.990Z,0.99
2022-11-29T01:00:12.338Z,0.82
2022-11-29T01:03:02.078Z,0.76
2022-11-29T01:05:50.913Z,0.94
2022-11-29T01:11:42.371Z,0.78
2022-11-29T01:14:32.464Z,0.97
2022-11-29T01:17:19.417Z,0.77
2022-11-29T01:19:50.590Z,0.84
2022-11-29T01:22:18.826Z,0.99
2022-11-29T01:24:46.065Z,0.94
2022-11-29T01:27:13.144Z,0.83
2022-11-29T01:29:39.957Z,0.96
2022-11-29T01:32:06.823Z,0.78
2022-11-29T01:34:33.550Z,0.97
2022-11-29T01:37:00.723Z,0.73
2022-11-29T01:39:27.532Z,0.34
2022-11-29T01:41:55.186Z,0.32
2022-11-29T01:44:22.049Z,0.08
2022-11-29T01:46:50.820Z,0.06
2022-11-29T01:49:39.431Z,0.14
2022-11-29T01:52:11.855Z,0.51
2022-11-29T01:54:43.732Z,0.23
2022-11-29T01:57:10.948Z,0.44
2022-11-29T01:59:47.333Z,0.27
2022-11-29T02:02:18.402Z,0.63
2022-11-29T02:04:47.458Z,0.71
2022-11-29T02:07:14.759Z,0.71
2022-11-29T02:09:41.904Z,1.00
2022-11-29T02:12:35.439Z,1.33
2022-11-29T02:15:32.414Z,0.69
2022-11-29T02:18:15.796Z,0.83
2022-11-29T02:20:49.071Z,0.82
2022-11-29T02:23:51.732Z,0.50
2022-11-29T02:26:48.897Z,0.58
2022-11-29T02:29:46.605Z,0.84
2022-11-29T02:32:49.945Z,0.93
2022-11-29T02:35:44.381Z,0.45
2022-11-29T02:38:36.373Z,0.51
2022-11-29T02:41:25.141Z,0.89
2022-11-29T02:43:58.132Z,1.05
2022-11-29T02:46:28.288Z,1.07
2022-11-29T02:49:07.325Z,0.94
2022-11-29T02:51:45.426Z,0.77
2022-11-29T02:54:45.443Z,0.81
2022-11-29T02:57:29.823Z,1.01
2022-11-29T03:00:22.550Z,0.70
2022-11-29T03:02:52.428Z,0.80
2022-11-29T03:05:25.669Z,1.19
2022-11-29T03:08:16.615Z,1.50
2022-11-29T03:11:30.891Z,1.14
2022-11-29T03:14:16.774Z,1.20
2022-11-29T03:16:59.210Z,0.99
2022-11-29T03:19:44.456Z,1.38
2022-11-29T03:22:31.819Z,1.14
2022-11-29T03:24:58.982Z,1.64
2022-11-29T03:27:51.520Z,1.13
2022-11-29T03:30:19.381Z,1.25
2022-11-29T03:33:13.187Z,1.48
2022-11-29T03:35:44.278Z,1.37
2022-11-29T03:38:23.200Z,1.19
2022-11-29T03:41:18.386Z,1.41
2022-11-29T03:43:57.498Z,1.40
2022-11-29T03:46:55.170Z,0.86
2022-11-29T03:49:46.239Z,0.86
2022-11-29T03:52:42.923Z,0.70
2022-11-29T03:55:32.196Z,0.72
2022-11-29T03:58:17.837Z,0.66
2022-11-29T04:00:47.752Z,0.70
2022-11-29T04:03:29.964Z,0.59
2022-11-29T04:06:26.866Z,0.30
2022-11-29T04:09:15.722Z,0.62
2022-11-29T04:12:04.198Z,0.78
2022-11-29T04:14:54.858Z,0.36
2022-11-29T04:17:51.713Z,0.38
2022-11-29T04:20:43.084Z,0.46
2022-11-29T04:23:34.713Z,0.94
2022-11-29T04:26:03.240Z,1.08
2022-11-29T04:28:45.446Z,1.11
2022-11-29T04:31:33.858Z,1.08
2022-11-29T04:34:12.878Z,0.44
2022-11-29T04:37:10.877Z,0.52
2022-11-29T04:40:03.508Z,0.43
2022-11-29T04:42:36.652Z,0.90
2022-11-29T04:45:06.005Z,0.85
2022-11-29T04:47:59.620Z,0.94
2022-11-29T04:50:45.029Z,1.12
2022-11-29T04:53:54.540Z,1.32
2022-11-29T04:56:53.599Z,1.60
2022-11-29T05:03:42.161Z,1.52
2022-11-29T05:07:00.179Z,1.44
2022-11-29T06:42:11.297Z,1.60
2022-11-29T07:06:44.109Z,2.07
2022-11-29T07:10:00.474Z,1.70
2022-11-29T10:25:30.554Z,7.72
2022-11-29T15:55:36.120Z,5.39
2022-11-29T15:58:08.778Z,5.51
2022-11-29T16:00:40.099Z,5.29
2022-11-29T16:03:17.222Z,5.18
2022-11-29T16:05:51.976Z,5.08
2022-11-29T16:11:50.834Z,5.06
2022-11-29T16:14:22.488Z,5.02
2022-11-29T16:16:55.477Z,4.99
2022-11-29T16:19:28.322Z,5.08
2022-11-29T16:22:23.444Z,4.86
2022-11-29T16:25:16.050Z,5.05
2022-11-29T16:28:14.461Z,5.03
2022-11-29T16:31:02.177Z,5.06
2022-11-29T16:33:49.324Z,5.14
2022-11-29T16:36:42.457Z,5.23
2022-11-29T16:39:59.357Z,5.22
2022-11-29T16:42:49.250Z,5.28
2022-11-29T16:46:06.516Z,5.28
2022-11-29T16:48:59.381Z,5.20
2022-11-29T16:52:05.804Z,5.33
2022-11-29T16:54:58.858Z,5.45
2022-11-29T16:58:11.361Z,5.31
2022-11-29T17:04:25.126Z,5.32
2022-11-29T17:06:56.785Z,5.38
2022-11-29T17:09:27.112Z,5.30
2022-11-29T17:11:55.200Z,5.29
2022-11-29T17:14:22.406Z,5.27
2022-11-29T17:16:50.642Z,5.31
2022-11-29T17:19:22.344Z,5.37
2022-11-29T17:21:50.093Z,5.45
2022-11-29T17:24:19.873Z,5.39
2022-11-29T17:26:50.465Z,5.39
2022-11-29T17:29:18.404Z,5.10
2022-11-29T17:31:50.781Z,5.33
2022-11-29T17:34:18.035Z,5.38
2022-11-29T17:36:45.483Z,5.22
2022-11-29T17:39:12.981Z,5.38
2022-11-29T17:41:40.157Z,5.47
2022-11-29T17:44:07.529Z,5.58
2022-11-29T17:46:56.753Z,5.52
2022-11-29T17:52:24.794Z,5.48
2022-11-29T18:34:22.318Z,5.23
2022-11-29T18:36:49.890Z,5.47
2022-11-29T18:39:31.072Z,5.49
2022-11-29T18:41:57.856Z,5.22
2022-11-29T18:44:29.739Z,5.18
2022-11-29T18:46:57.386Z,5.02
2022-11-29T18:49:44.250Z,5.14
2022-11-29T18:52:35.307Z,5.03
2022-11-29T18:55:36.634Z,5.26
2022-11-29T18:58:23.779Z,5.24
2022-11-29T19:01:38.303Z,5.12
2022-11-29T19:04:39.684Z,4.86
2022-11-29T19:07:26.873Z,4.93
2022-11-29T19:13:23.197Z,5.01
2022-11-29T19:15:56.421Z,4.96
2022-11-29T19:18:25.158Z,4.99
2022-11-29T21:17:05.694Z,5.09
